Time;durP1;ratioP1;P1;durP2;ratioP2;P2;SDS_P1;SDS_P2;PMS_P1;PMS_P2;Temp;Humidity;BMP_temperature;BMP_pressure;BME280_temperature;BME280_humidity;BME280_pressure;Samples;Min_cycle;Max_cycle;Signal;HPM_P1;HPM_P2
2022/03/31 00:00:05;;;;;;;;;;;26.20;32.60;;;;;;679629;29;788;-85
2022/03/31 00:00:28;;;;;;;;;;;24.00;31.00;;;;;;679874;29;871;-85
2022/03/31 00:00:49;;;;;;;;;;;24.00;31.40;;;;;;677474;29;816;-87
2022/03/31 00:01:16;;;;;;;;;;;24.00;31.00;;;;;;677528;29;894;-96
2022/03/31 00:01:36;;;;;;;;;;;24.00;31.00;;;;;;678835;29;1147;-92
2022/03/31 00:01:58;;;;;;;;;;;24.00;31.30;;;;;;679536;29;1953;-92
2022/03/31 00:02:18;;;;;;;;;;;24.00;31.30;;;;;;680178;29;1002;-92
2022/03/31 00:02:39;;;;;;;;;;;24.00;31.70;;;;;;677954;29;1122;-93
2022/03/31 00:03:00;;;;;;;;;;;24.00;31.20;;;;;;677468;29;1200;-92
2022/03/31 00:03:21;;;;;;;;;;;23.90;31.00;;;;;;677056;29;915;-96
2022/03/31 00:03:44;;;;;;;;;;;24.00;31.00;;;;;;677685;29;911;-96
2022/03/31 00:04:05;;;;;;;;;;;24.00;31.10;;;;;;680191;29;1167;-84
2022/03/31 00:04:26;;;;;;;;;;;24.00;31.50;;;;;;679861;29;890;-95
2022/03/31 00:04:47;;;;;;;;;;;24.00;31.60;;;;;;680121;29;827;-94
2022/03/31 00:05:10;;;;;;;;;;;24.00;31.00;;;;;;679940;29;835;-92
2022/03/31 00:05:30;;;;;;;;;;;23.90;30.90;;;;;;679915;29;902;-96
2022/03/31 00:05:54;;;;;;;;;;;24.00;30.70;;;;;;679812;29;922;-96
2022/03/31 00:06:15;;;;;;;;;;;24.00;30.80;;;;;;676280;29;1125;-91
2022/03/31 00:06:36;;;;;;;;;;;24.00;31.40;;;;;;676497;29;820;-94
2022/03/31 00:06:58;;;;;;;;;;;24.00;30.80;;;;;;676701;29;991;-94
2022/03/31 00:07:18;;;;;;;;;;;23.90;31.20;;;;;;676416;29;875;-96
2022/03/31 00:07:53;;;;;;;;;;;23.90;31.00;;;;;;677140;29;855;-92
2022/03/31 00:08:14;;;;;;;;;;;24.00;30.70;;;;;;678915;29;804;-86
2022/03/31 00:08:34;;;;;;;;;;;24.00;30.80;;;;;;678923;29;1025;-96
2022/03/31 00:08:56;;;;;;;;;;;24.00;31.00;;;;;;679209;29;907;-96
2022/03/31 00:09:18;;;;;;;;;;;24.00;31.00;;;;;;678989;29;903;-96
2022/03/31 00:09:38;;;;;;;;;;;24.00;30.80;;;;;;679226;29;927;-95
2022/03/31 00:09:59;;;;;;;;;;;24.00;31.00;;;;;;679230;29;994;-92
2022/03/31 00:10:20;;;;;;;;;;;24.00;30.90;;;;;;678975;29;858;-89
2022/03/31 00:10:47;;;;;;;;;;;24.00;30.90;;;;;;678843;29;789;-93
2022/03/31 00:11:12;;;;;;;;;;;24.00;30.60;;;;;;679519;29;804;-95
2022/03/31 00:11:33;;;;;;;;;;;24.00;30.80;;;;;;678922;29;1126;-95
2022/03/31 00:11:53;;;;;;;;;;;24.00;30.90;;;;;;679393;29;960;-85
2022/03/31 00:12:15;;;;;;;;;;;24.00;31.00;;;;;;679866;29;930;-89
2022/03/31 00:12:36;;;;;;;;;;;23.90;30.70;;;;;;679297;29;887;-96
2022/03/31 00:12:57;;;;;;;;;;;24.00;30.90;;;;;;679126;29;1073;-93
2022/03/31 00:13:19;;;;;;;;;;;24.00;30.70;;;;;;679174;29;1234;-95
2022/03/31 00:13:41;;;;;;;;;;;23.90;31.20;;;;;;679257;29;777;-91
2022/03/31 00:14:02;;;;;;;;;;;24.00;31.00;;;;;;679199;29;816;-92
2022/03/31 00:14:22;;;;;;;;;;;24.00;31.50;;;;;;679489;29;879;-94
2022/03/31 00:14:43;;;;;;;;;;;23.90;31.00;;;;;;679366;29;859;-86
2022/03/31 00:15:04;;;;;;;;;;;24.00;31.40;;;;;;677513;29;1336;-92
2022/03/31 00:15:26;;;;;;;;;;;23.90;31.40;;;;;;679191;29;1143;-92
2022/03/31 00:15:47;;;;;;;;;;;24.00;32.20;;;;;;679881;29;847;-93
2022/03/31 00:16:09;;;;;;;;;;;23.90;31.00;;;;;;679347;29;898;-92
2022/03/31 00:16:29;;;;;;;;;;;23.90;31.50;;;;;;676404;29;1238;-92
2022/03/31 00:16:50;;;;;;;;;;;23.90;31.70;;;;;;676869;29;780;-89
2022/03/31 00:17:11;;;;;;;;;;;23.90;31.10;;;;;;678614;29;1203;-91
2022/03/31 00:17:31;;;;;;;;;;;23.90;31.00;;;;;;678550;29;1492;-91
2022/03/31 00:17:52;;;;;;;;;;;23.90;31.10;;;;;;678725;29;923;-95
2022/03/31 00:18:14;;;;;;;;;;;23.90;30.90;;;;;;678606;29;859;-83
2022/03/31 00:18:34;;;;;;;;;;;23.90;31.00;;;;;;675840;29;1234;-92
2022/03/31 00:18:55;;;;;;;;;;;22.60;30.40;;;;;;677918;29;879;-94
2022/03/31 00:19:16;;;;;;;;;;;23.90;32.00;;;;;;675838;29;930;-93
2022/03/31 00:19:37;;;;;;;;;;;23.90;31.70;;;;;;675899;29;843;-92
2022/03/31 00:19:57;;;;;;;;;;;23.90;31.40;;;;;;676057;29;1298;-95
2022/03/31 00:20:18;;;;;;;;;;;23.90;31.40;;;;;;678608;29;1239;-94
2022/03/31 00:20:39;;;;;;;;;;;23.90;31.30;;;;;;678377;29;892;-93
2022/03/31 00:21:04;;;;;;;;;;;23.90;31.20;;;;;;678172;29;828;-89
2022/03/31 00:21:26;;;;;;;;;;;23.90;31.00;;;;;;676080;29;784;-91
2022/03/31 00:21:48;;;;;;;;;;;23.90;31.30;;;;;;675986;29;828;-94
2022/03/31 00:22:08;;;;;;;;;;;23.90;31.40;;;;;;676830;29;1962;-92
2022/03/31 00:22:29;;;;;;;;;;;23.90;31.30;;;;;;678791;29;1002;-87
2022/03/31 00:22:50;;;;;;;;;;;23.90;31.10;;;;;;673741;29;1031;-91
2022/03/31 00:23:10;;;;;;;;;;;23.90;32.40;;;;;;673285;29;848;-94
2022/03/31 00:23:31;;;;;;;;;;;23.90;31.00;;;;;;673572;29;860;-85
2022/03/31 00:23:52;;;;;;;;;;;23.90;31.20;;;;;;671492;29;1349;-93
2022/03/31 00:24:12;;;;;;;;;;;23.90;32.00;;;;;;674150;29;1422;-89
2022/03/31 00:24:34;;;;;;;;;;;23.90;31.10;;;;;;672861;29;1185;-84
2022/03/31 00:24:55;;;;;;;;;;;23.90;31.00;;;;;;673462;29;939;-84
2022/03/31 00:25:15;;;;;;;;;;;23.90;31.00;;;;;;672960;29;832;-89
2022/03/31 00:25:36;;;;;;;;;;;23.90;31.30;;;;;;672752;29;887;-85
2022/03/31 00:25:56;;;;;;;;;;;23.90;31.30;;;;;;672118;29;1264;-84
2022/03/31 00:26:17;;;;;;;;;;;23.90;31.60;;;;;;672768;29;1222;-89
2022/03/31 00:26:37;;;;;;;;;;;21.80;30.40;;;;;;675231;29;800;-84
2022/03/31 00:26:58;;;;;;;;;;;23.80;32.10;;;;;;675218;29;864;-90
2022/03/31 00:27:19;;;;;;;;;;;23.90;31.60;;;;;;674714;29;784;-85
2022/03/31 00:27:40;;;;;;;;;;;23.90;31.10;;;;;;674643;29;745;-83
2022/03/31 00:28:03;;;;;;;;;;;23.90;31.10;;;;;;676160;29;927;-83
2022/03/31 00:28:25;;;;;;;;;;;23.90;31.60;;;;;;676487;29;860;-84
2022/03/31 00:28:46;;;;;;;;;;;23.90;31.60;;;;;;676510;29;777;-84
2022/03/31 00:29:07;;;;;;;;;;;23.90;31.40;;;;;;676409;29;1172;-86
2022/03/31 00:29:28;;;;;;;;;;;23.90;31.80;;;;;;676594;29;1033;-83
2022/03/31 00:29:48;;;;;;;;;;;23.90;32.00;;;;;;673640;29;1179;-85
2022/03/31 00:30:11;;;;;;;;;;;23.90;31.00;;;;;;673800;29;860;-86
2022/03/31 00:30:32;;;;;;;;;;;23.90;31.00;;;;;;671061;29;1206;-83
2022/03/31 00:30:53;;;;;;;;;;;23.90;31.00;;;;;;673281;29;947;-92
2022/03/31 00:31:13;;;;;;;;;;;23.90;31.60;;;;;;670743;29;816;-87
2022/03/31 00:31:34;;;;;;;;;;;23.80;31.30;;;;;;670556;29;1236;-88
2022/03/31 00:31:55;;;;;;;;;;;23.90;31.20;;;;;;670732;29;825;-94
2022/03/31 00:32:16;;;;;;;;;;;23.90;31.30;;;;;;668668;29;1410;-86
2022/03/31 00:32:37;;;;;;;;;;;23.80;31.40;;;;;;671632;29;801;-94
2022/03/31 00:32:59;;;;;;;;;;;23.80;32.00;;;;;;672012;29;1087;-83
2022/03/31 00:33:19;;;;;;;;;;;23.90;31.20;;;;;;671019;29;821;-93
2022/03/31 00:33:40;;;;;;;;;;;23.80;30.80;;;;;;670901;29;954;-92
2022/03/31 00:34:00;;;;;;;;;;;23.90;31.00;;;;;;673186;29;1142;-86
2022/03/31 00:34:21;;;;;;;;;;;22.80;31.70;;;;;;673750;29;915;-88
2022/03/31 00:34:41;;;;;;;;;;;23.80;31.10;;;;;;673044;29;800;-87
2022/03/31 00:35:02;;;;;;;;;;;23.90;31.20;;;;;;673157;29;876;-90
2022/03/31 00:35:23;;;;;;;;;;;23.80;31.10;;;;;;673224;29;963;-96
2022/03/31 00:35:44;;;;;;;;;;;23.80;30.90;;;;;;670738;29;1485;-88
2022/03/31 00:36:04;;;;;;;;;;;22.10;30.30;;;;;;670900;29;821;-88
2022/03/31 00:36:25;;;;;;;;;;;22.10;30.40;;;;;;670769;29;848;-85
2022/03/31 00:36:46;;;;;;;;;;;23.80;31.30;;;;;;670623;29;951;-89
2022/03/31 00:37:06;;;;;;;;;;;23.80;31.50;;;;;;670719;29;840;-93
2022/03/31 00:37:27;;;;;;;;;;;23.80;31.20;;;;;;671075;29;863;-87
2022/03/31 00:37:48;;;;;;;;;;;23.80;31.50;;;;;;673442;29;817;-95
2022/03/31 00:38:10;;;;;;;;;;;23.80;31.70;;;;;;671111;29;1357;-95
2022/03/31 00:38:31;;;;;;;;;;;23.80;31.30;;;;;;668365;29;1365;-94
2022/03/31 00:39:36;;;;;;;;;;;23.80;31.20;;;;;;668878;29;603;-94
2022/03/31 00:39:57;;;;;;;;;;;23.80;31.40;;;;;;669422;29;860;-92
2022/03/31 00:40:19;;;;;;;;;;;23.80;31.30;;;;;;668499;29;884;-96
2022/03/31 00:40:40;;;;;;;;;;;23.80;31.30;;;;;;669639;29;1007;-96
2022/03/31 00:41:01;;;;;;;;;;;23.80;32.00;;;;;;670831;29;825;-93
2022/03/31 00:41:23;;;;;;;;;;;23.80;31.10;;;;;;668101;29;1267;-90
2022/03/31 00:41:44;;;;;;;;;;;23.80;31.30;;;;;;670513;29;1286;-84
2022/03/31 00:42:06;;;;;;;;;;;23.80;31.40;;;;;;670392;29;1903;-87
2022/03/31 00:42:26;;;;;;;;;;;23.80;31.10;;;;;;670762;29;785;-88
2022/03/31 00:42:49;;;;;;;;;;;23.80;31.30;;;;;;670486;29;1118;-88
2022/03/31 00:43:10;;;;;;;;;;;23.80;31.20;;;;;;670492;29;805;-88
2022/03/31 00:43:30;;;;;;;;;;;23.80;31.30;;;;;;671232;29;769;-91
2022/03/31 00:43:51;;;;;;;;;;;23.80;31.20;;;;;;673055;29;911;-91
2022/03/31 00:44:12;;;;;;;;;;;23.80;31.40;;;;;;670524;29;1316;-92
2022/03/31 00:44:32;;;;;;;;;;;23.80;32.10;;;;;;671089;29;1022;-87
2022/03/31 00:44:53;;;;;;;;;;;23.80;31.60;;;;;;673145;29;816;-87
2022/03/31 00:45:17;;;;;;;;;;;23.80;31.10;;;;;;673167;29;856;-87
2022/03/31 00:45:46;;;;;;;;;;;23.80;31.00;;;;;;670515;29;856;-87
2022/03/31 00:46:07;;;;;;;;;;;23.80;31.30;;;;;;672346;29;896;-93
2022/03/31 00:46:27;;;;;;;;;;;21.90;30.40;;;;;;673315;29;868;-89
2022/03/31 00:46:52;;;;;;;;;;;23.80;31.50;;;;;;673110;29;1307;-87
2022/03/31 00:47:12;;;;;;;;;;;23.70;31.90;;;;;;673081;29;1259;-88
2022/03/31 00:47:34;;;;;;;;;;;23.80;31.30;;;;;;670574;29;1326;-87
2022/03/31 00:47:55;;;;;;;;;;;24.10;31.60;;;;;;667713;29;1319;-83
2022/03/31 00:48:17;;;;;;;;;;;23.80;31.30;;;;;;667908;29;821;-92
2022/03/31 00:48:37;;;;;;;;;;;23.80;31.30;;;;;;668181;29;959;-90
2022/03/31 00:48:58;;;;;;;;;;;23.80;31.40;;;;;;668805;29;774;-90
2022/03/31 00:49:21;;;;;;;;;;;23.80;31.10;;;;;;668279;29;1305;-87
2022/03/31 00:49:41;;;;;;;;;;;23.80;31.10;;;;;;669008;29;877;-89
2022/03/31 00:50:02;;;;;;;;;;;23.80;31.30;;;;;;670517;29;828;-84
2022/03/31 00:50:23;;;;;;;;;;;23.80;31.90;;;;;;670985;29;828;-93
2022/03/31 00:50:44;;;;;;;;;;;23.80;31.00;;;;;;667956;29;1484;-85
2022/03/31 00:51:04;;;;;;;;;;;23.80;31.20;;;;;;668601;29;916;-83
2022/03/31 00:51:25;;;;;;;;;;;23.80;31.80;;;;;;670907;29;848;-88
2022/03/31 00:51:46;;;;;;;;;;;23.80;31.40;;;;;;673082;29;812;-87
2022/03/31 00:52:07;;;;;;;;;;;23.80;31.20;;;;;;673071;29;942;-83
2022/03/31 00:52:27;;;;;;;;;;;23.80;31.10;;;;;;673120;29;805;-88
2022/03/31 00:52:48;;;;;;;;;;;23.80;31.30;;;;;;673195;29;753;-87
2022/03/31 00:53:09;;;;;;;;;;;23.80;32.00;;;;;;673088;29;824;-84
2022/03/31 00:53:29;;;;;;;;;;;23.80;31.30;;;;;;670391;29;817;-83
2022/03/31 00:53:51;;;;;;;;;;;23.80;31.30;;;;;;670419;29;1178;-83
2022/03/31 00:54:12;;;;;;;;;;;23.80;31.10;;;;;;670391;29;879;-83
2022/03/31 00:54:33;;;;;;;;;;;23.80;31.00;;;;;;670431;29;861;-89
2022/03/31 00:54:53;;;;;;;;;;;23.80;31.90;;;;;;670517;29;1223;-84
2022/03/31 00:55:15;;;;;;;;;;;23.80;31.20;;;;;;670371;29;1164;-83
2022/03/31 00:55:35;;;;;;;;;;;23.80;31.00;;;;;;669999;29;1121;-84
2022/03/31 00:55:59;;;;;;;;;;;23.80;31.10;;;;;;670536;29;828;-83
2022/03/31 00:56:20;;;;;;;;;;;23.80;31.30;;;;;;670537;29;521;-83
2022/03/31 00:56:41;;;;;;;;;;;23.70;31.30;;;;;;670562;29;832;-83
2022/03/31 00:57:02;;;;;;;;;;;23.80;31.40;;;;;;670447;29;524;-85
2022/03/31 00:57:23;;;;;;;;;;;23.80;31.30;;;;;;668673;29;1232;-81
2022/03/31 00:57:43;;;;;;;;;;;23.80;31.20;;;;;;670486;29;817;-83
2022/03/31 00:58:05;;;;;;;;;;;23.80;31.00;;;;;;672507;29;860;-83
2022/03/31 00:58:25;;;;;;;;;;;23.80;31.00;;;;;;672851;29;856;-83
2022/03/31 00:58:47;;;;;;;;;;;23.80;31.30;;;;;;673260;29;896;-81
2022/03/31 00:59:08;;;;;;;;;;;23.80;32.00;;;;;;673125;29;816;-84
2022/03/31 00:59:29;;;;;;;;;;;23.80;31.10;;;;;;670481;29;845;-83
2022/03/31 00:59:50;;;;;;;;;;;21.90;30.10;;;;;;671239;29;829;-83
2022/03/31 01:00:11;;;;;;;;;;;23.80;31.50;;;;;;673007;29;817;-82
2022/03/31 01:00:32;;;;;;;;;;;23.70;31.20;;;;;;673043;29;821;-88
2022/03/31 01:00:53;;;;;;;;;;;23.70;31.60;;;;;;673064;29;1286;-83
2022/03/31 01:01:13;;;;;;;;;;;23.70;31.40;;;;;;673163;29;947;-83
2022/03/31 01:01:35;;;;;;;;;;;23.80;31.50;;;;;;670774;29;1298;-83
2022/03/31 01:01:56;;;;;;;;;;;23.70;31.00;;;;;;670556;29;1907;-83
2022/03/31 01:02:17;;;;;;;;;;;23.70;31.40;;;;;;667815;29;1521;-88
2022/03/31 01:02:41;;;;;;;;;;;23.80;31.40;;;;;;668465;29;833;-83
2022/03/31 01:03:02;;;;;;;;;;;23.80;31.30;;;;;;668256;29;1227;-82
2022/03/31 01:03:23;;;;;;;;;;;23.70;31.50;;;;;;669254;29;816;-83
2022/03/31 01:03:43;;;;;;;;;;;23.80;31.70;;;;;;670837;29;797;-83
2022/03/31 01:04:05;;;;;;;;;;;23.80;31.50;;;;;;671445;29;1335;-82
2022/03/31 01:04:26;;;;;;;;;;;23.70;31.50;;;;;;673435;29;1009;-83
2022/03/31 01:04:47;;;;;;;;;;;23.80;31.30;;;;;;671343;29;1307;-83
2022/03/31 01:05:08;;;;;;;;;;;23.70;31.10;;;;;;673281;29;856;-83
2022/03/31 01:05:29;;;;;;;;;;;23.80;31.40;;;;;;673678;29;824;-82
2022/03/31 01:05:49;;;;;;;;;;;23.70;32.50;;;;;;673302;29;1308;-82
2022/03/31 01:06:10;;;;;;;;;;;23.80;32.10;;;;;;673111;29;1133;-83
2022/03/31 01:06:31;;;;;;;;;;;23.70;32.00;;;;;;670911;29;1393;-82
2022/03/31 01:06:52;;;;;;;;;;;23.70;32.10;;;;;;671043;29;809;-82
2022/03/31 01:07:13;;;;;;;;;;;23.70;31.60;;;;;;670776;29;891;-83
2022/03/31 01:07:34;;;;;;;;;;;23.70;31.60;;;;;;670741;29;805;-83
2022/03/31 01:07:55;;;;;;;;;;;23.70;31.40;;;;;;671293;29;970;-83
2022/03/31 01:08:17;;;;;;;;;;;23.70;32.30;;;;;;673400;29;864;-83
2022/03/31 01:08:38;;;;;;;;;;;23.80;31.40;;;;;;670682;29;1377;-82
2022/03/31 01:08:59;;;;;;;;;;;23.70;31.10;;;;;;670790;29;848;-82
2022/03/31 01:09:20;;;;;;;;;;;23.80;31.40;;;;;;670689;29;876;-83
2022/03/31 01:09:41;;;;;;;;;;;23.80;31.50;;;;;;670360;29;1378;-83
2022/03/31 01:10:02;;;;;;;;;;;23.70;31.50;;;;;;670886;29;825;-82
2022/03/31 01:10:22;;;;;;;;;;;23.80;31.10;;;;;;671106;29;789;-83
2022/03/31 01:10:43;;;;;;;;;;;23.70;31.10;;;;;;670682;29;1196;-82
2022/03/31 01:11:04;;;;;;;;;;;23.70;31.00;;;;;;670872;29;1317;-82
2022/03/31 01:11:25;;;;;;;;;;;23.80;31.40;;;;;;670450;29;1192;-82
2022/03/31 01:11:46;;;;;;;;;;;23.80;31.30;;;;;;668052;29;1268;-83
2022/03/31 01:12:07;;;;;;;;;;;23.70;31.50;;;;;;670676;29;900;-83
2022/03/31 01:12:28;;;;;;;;;;;23.70;31.00;;;;;;670538;29;1566;-83
2022/03/31 01:12:49;;;;;;;;;;;23.70;31.10;;;;;;668617;29;840;-82
2022/03/31 01:13:09;;;;;;;;;;;23.70;31.30;;;;;;668611;29;789;-82
2022/03/31 01:13:33;;;;;;;;;;;23.70;31.90;;;;;;668459;29;816;-83
2022/03/31 01:13:53;;;;;;;;;;;23.80;31.10;;;;;;669677;29;860;-83
2022/03/31 01:14:15;;;;;;;;;;;23.70;32.40;;;;;;669622;29;1478;-83
2022/03/31 01:14:35;;;;;;;;;;;23.70;30.90;;;;;;671066;29;817;-83
2022/03/31 01:15:06;;;;;;;;;;;23.70;31.20;;;;;;672231;29;769;-83
2022/03/31 01:15:26;;;;;;;;;;;23.80;30.90;;;;;;670931;29;1265;-84
2022/03/31 01:15:47;;;;;;;;;;;23.70;31.20;;;;;;667710;29;1273;-86
2022/03/31 01:16:08;;;;;;;;;;;23.70;31.20;;;;;;667814;29;916;-87
2022/03/31 01:16:29;;;;;;;;;;;23.70;31.10;;;;;;668021;29;785;-89
2022/03/31 01:16:49;;;;;;;;;;;26.10;32.40;;;;;;668000;29;1302;-91
2022/03/31 01:17:10;;;;;;;;;;;23.70;31.50;;;;;;664939;29;1357;-87
2022/03/31 01:17:30;;;;;;;;;;;23.70;31.30;;;;;;663152;29;1026;-87
2022/03/31 01:17:51;;;;;;;;;;;23.70;31.70;;;;;;665691;29;892;-89
2022/03/31 01:18:11;;;;;;;;;;;23.70;31.60;;;;;;667687;29;1297;-90
2022/03/31 01:18:32;;;;;;;;;;;23.80;31.10;;;;;;665198;29;1298;-83
2022/03/31 01:18:53;;;;;;;;;;;23.70;31.00;;;;;;665363;29;1499;-88
2022/03/31 01:19:14;;;;;;;;;;;23.70;31.10;;;;;;665303;29;774;-84
2022/03/31 01:19:34;;;;;;;;;;;23.70;32.00;;;;;;665316;29;820;-83
2022/03/31 01:19:55;;;;;;;;;;;23.70;31.00;;;;;;665341;29;837;-87
2022/03/31 01:20:17;;;;;;;;;;;23.70;31.10;;;;;;665789;29;1103;-87
2022/03/31 01:20:38;;;;;;;;;;;23.70;30.90;;;;;;667854;29;817;-84
2022/03/31 01:21:01;;;;;;;;;;;23.70;31.40;;;;;;667928;29;498;-88
2022/03/31 01:21:21;;;;;;;;;;;23.70;31.10;;;;;;667841;29;875;-86
2022/03/31 01:21:43;;;;;;;;;;;23.70;31.00;;;;;;667716;29;1110;-85
2022/03/31 01:22:04;;;;;;;;;;;23.70;30.90;;;;;;670577;29;1867;-83
2022/03/31 01:22:24;;;;;;;;;;;23.70;32.00;;;;;;672932;29;915;-85
2022/03/31 01:22:45;;;;;;;;;;;23.70;31.40;;;;;;672799;29;1132;-83
2022/03/31 01:23:12;;;;;;;;;;;23.70;31.10;;;;;;672882;29;987;-83
2022/03/31 01:23:34;;;;;;;;;;;23.70;31.00;;;;;;672740;29;1352;-87
2022/03/31 01:23:55;;;;;;;;;;;23.70;30.90;;;;;;673029;29;1231;-85
2022/03/31 01:24:17;;;;;;;;;;;23.70;32.10;;;;;;672918;29;880;-83
2022/03/31 01:24:38;;;;;;;;;;;23.70;32.00;;;;;;672922;29;843;-84
2022/03/31 01:24:59;;;;;;;;;;;23.70;30.90;;;;;;670382;29;1635;-84
2022/03/31 01:25:20;;;;;;;;;;;23.70;31.10;;;;;;670465;29;872;-83
2022/03/31 01:25:41;;;;;;;;;;;23.70;31.30;;;;;;668266;29;1093;-84
2022/03/31 01:26:05;;;;;;;;;;;23.70;30.90;;;;;;670220;29;1348;-86
2022/03/31 01:26:25;;;;;;;;;;;23.70;31.10;;;;;;667719;29;1379;-84
2022/03/31 01:26:46;;;;;;;;;;;23.70;31.20;;;;;;668838;29;824;-84
2022/03/31 01:27:11;;;;;;;;;;;23.70;31.50;;;;;;670282;29;899;-84
2022/03/31 01:27:32;;;;;;;;;;;23.70;31.50;;;;;;670314;29;872;-83
2022/03/31 01:27:53;;;;;;;;;;;23.70;31.00;;;;;;669004;29;1456;-83
2022/03/31 01:28:14;;;;;;;;;;;23.70;31.30;;;;;;671381;29;919;-86
2022/03/31 01:28:35;;;;;;;;;;;23.70;31.20;;;;;;672824;29;820;-84
2022/03/31 01:28:55;;;;;;;;;;;23.70;30.80;;;;;;672880;29;1466;-83
2022/03/31 01:29:16;;;;;;;;;;;23.70;31.00;;;;;;672920;29;990;-85
2022/03/31 01:29:37;;;;;;;;;;;23.70;30.90;;;;;;672835;29;773;-83
2022/03/31 01:29:57;;;;;;;;;;;23.70;31.00;;;;;;672979;29;958;-87
2022/03/31 01:30:22;;;;;;;;;;;23.60;31.00;;;;;;672926;29;781;-84
2022/03/31 01:30:43;;;;;;;;;;;23.70;30.80;;;;;;672871;29;784;-83
2022/03/31 01:31:04;;;;;;;;;;;23.70;31.20;;;;;;673073;29;824;-83
2022/03/31 01:31:26;;;;;;;;;;;23.70;31.50;;;;;;670346;29;1210;-83
2022/03/31 01:31:47;;;;;;;;;;;23.60;31.70;;;;;;670385;29;1321;-84
2022/03/31 01:32:08;;;;;;;;;;;23.70;30.80;;;;;;670257;29;1406;-84
2022/03/31 01:32:28;;;;;;;;;;;23.70;31.10;;;;;;670557;29;907;-83
2022/03/31 01:32:50;;;;;;;;;;;23.70;30.90;;;;;;670517;29;868;-83
2022/03/31 01:33:11;;;;;;;;;;;23.70;30.80;;;;;;670322;29;1383;-83
2022/03/31 01:33:31;;;;;;;;;;;23.70;31.00;;;;;;670380;29;777;-82
2022/03/31 01:33:53;;;;;;;;;;;23.70;31.00;;;;;;670364;29;1490;-83
2022/03/31 01:34:14;;;;;;;;;;;23.70;31.00;;;;;;667672;29;1502;-86
2022/03/31 01:34:34;;;;;;;;;;;23.70;31.20;;;;;;667859;29;895;-83
2022/03/31 01:34:56;;;;;;;;;;;23.70;31.00;;;;;;665394;29;1164;-83
2022/03/31 01:35:17;;;;;;;;;;;23.70;31.00;;;;;;665442;29;891;-83
2022/03/31 01:35:39;;;;;;;;;;;23.60;31.00;;;;;;665853;29;832;-86
2022/03/31 01:36:01;;;;;;;;;;;24.80;31.50;;;;;;667752;29;1333;-84
2022/03/31 01:36:22;;;;;;;;;;;23.70;30.90;;;;;;668055;29;868;-83
2022/03/31 01:36:42;;;;;;;;;;;23.60;31.80;;;;;;668797;29;896;-82
2022/03/31 01:37:04;;;;;;;;;;;23.70;30.90;;;;;;670500;29;880;-84
2022/03/31 01:37:25;;;;;;;;;;;21.30;29.70;;;;;;670547;29;1192;-85
2022/03/31 01:37:45;;;;;;;;;;;23.60;31.00;;;;;;669754;29;871;-82
2022/03/31 01:38:06;;;;;;;;;;;23.60;31.00;;;;;;670310;29;1420;-82
2022/03/31 01:38:27;;;;;;;;;;;23.70;31.00;;;;;;670404;29;1071;-82
2022/03/31 01:38:48;;;;;;;;;;;23.70;31.00;;;;;;670594;29;836;-82
2022/03/31 01:39:08;;;;;;;;;;;23.70;31.00;;;;;;670548;29;860;-83
2022/03/31 01:39:29;;;;;;;;;;;23.60;31.10;;;;;;670395;29;947;-84
2022/03/31 01:39:50;;;;;;;;;;;23.60;31.20;;;;;;670890;29;796;-83
2022/03/31 01:40:11;;;;;;;;;;;23.70;31.20;;;;;;673242;29;1011;-82
2022/03/31 01:40:31;;;;;;;;;;;23.70;31.00;;;;;;673136;29;831;-83
2022/03/31 01:40:52;;;;;;;;;;;23.70;31.10;;;;;;673160;29;816;-83
2022/03/31 01:41:12;;;;;;;;;;;23.60;31.00;;;;;;673053;29;898;-86
2022/03/31 01:41:34;;;;;;;;;;;23.60;31.00;;;;;;669908;29;1191;-90
2022/03/31 01:41:55;;;;;;;;;;;23.70;30.80;;;;;;670479;29;804;-85
2022/03/31 01:42:16;;;;;;;;;;;23.70;31.00;;;;;;670255;29;1935;-87
2022/03/31 01:42:37;;;;;;;;;;;23.70;31.10;;;;;;670338;29;1339;-83
2022/03/31 01:42:58;;;;;;;;;;;23.70;31.00;;;;;;670565;29;797;-83
2022/03/31 01:43:20;;;;;;;;;;;23.60;31.10;;;;;;670777;29;927;-83
2022/03/31 01:43:42;;;;;;;;;;;23.60;31.10;;;;;;673089;29;844;-86
2022/03/31 01:44:03;;;;;;;;;;;23.70;31.20;;;;;;673057;29;859;-83
2022/03/31 01:44:23;;;;;;;;;;;23.70;31.30;;;;;;670423;29;1170;-83
2022/03/31 01:44:44;;;;;;;;;;;23.70;32.30;;;;;;672654;29;1197;-84
2022/03/31 01:45:07;;;;;;;;;;;23.60;31.30;;;;;;672847;29;851;-84
2022/03/31 01:45:27;;;;;;;;;;;23.70;31.60;;;;;;672981;29;817;-84
2022/03/31 01:45:52;;;;;;;;;;;23.70;31.30;;;;;;672784;29;958;-84
2022/03/31 01:46:13;;;;;;;;;;;23.70;31.10;;;;;;672775;29;1228;-84
2022/03/31 01:46:34;;;;;;;;;;;24.70;31.70;;;;;;670163;29;1255;-86
2022/03/31 01:46:56;;;;;;;;;;;23.60;31.10;;;;;;667801;29;1212;-85
2022/03/31 01:47:17;;;;;;;;;;;22.50;30.30;;;;;;667712;29;1502;-86
2022/03/31 01:47:38;;;;;;;;;;;23.60;31.60;;;;;;667627;29;1317;-83
2022/03/31 01:47:58;;;;;;;;;;;23.60;31.10;;;;;;667867;29;1227;-83
2022/03/31 01:48:20;;;;;;;;;;;23.70;31.10;;;;;;668470;29;809;-84
2022/03/31 01:48:41;;;;;;;;;;;23.70;30.90;;;;;;671052;29;982;-91
2022/03/31 01:49:01;;;;;;;;;;;23.70;31.50;;;;;;672719;29;955;-83
2022/03/31 01:49:22;;;;;;;;;;;23.70;31.10;;;;;;670273;29;1236;-83
2022/03/31 01:49:43;;;;;;;;;;;23.60;31.10;;;;;;670257;29;784;-84
2022/03/31 01:50:04;;;;;;;;;;;25.60;32.30;;;;;;667619;29;1422;-83
2022/03/31 01:50:25;;;;;;;;;;;23.60;31.00;;;;;;667969;29;1065;-88
2022/03/31 01:50:46;;;;;;;;;;;23.60;31.60;;;;;;668207;29;1011;-87
2022/03/31 01:51:07;;;;;;;;;;;23.70;31.00;;;;;;670172;29;1246;-85
2022/03/31 01:51:28;;;;;;;;;;;23.70;31.70;;;;;;670359;29;1300;-86
2022/03/31 01:51:48;;;;;;;;;;;23.60;31.30;;;;;;670203;29;892;-87
2022/03/31 01:52:09;;;;;;;;;;;23.60;31.30;;;;;;670485;29;1042;-83
2022/03/31 01:52:29;;;;;;;;;;;23.70;31.00;;;;;;670300;29;859;-84
2022/03/31 01:52:50;;;;;;;;;;;23.60;32.00;;;;;;670670;29;809;-86
2022/03/31 01:53:11;;;;;;;;;;;23.60;31.10;;;;;;672775;29;883;-84
2022/03/31 01:53:33;;;;;;;;;;;23.60;31.10;;;;;;673051;29;839;-83
2022/03/31 01:53:53;;;;;;;;;;;23.70;31.00;;;;;;670208;29;1184;-84
2022/03/31 01:54:14;;;;;;;;;;;23.60;31.20;;;;;;670289;29;836;-83
2022/03/31 01:54:35;;;;;;;;;;;23.70;31.10;;;;;;670260;29;863;-83
2022/03/31 01:54:55;;;;;;;;;;;23.60;31.10;;;;;;667694;29;1367;-86
2022/03/31 01:55:16;;;;;;;;;;;23.60;31.10;;;;;;665149;29;1193;-86
2022/03/31 01:55:36;;;;;;;;;;;23.60;31.30;;;;;;665439;29;880;-87
2022/03/31 01:55:57;;;;;;;;;;;23.70;31.30;;;;;;667841;29;765;-90
2022/03/31 01:56:18;;;;;;;;;;;23.60;31.20;;;;;;667683;29;860;-85
2022/03/31 01:56:41;;;;;;;;;;;23.70;31.40;;;;;;667990;29;782;-85
2022/03/31 01:57:03;;;;;;;;;;;23.60;30.70;;;;;;672943;29;851;-84
2022/03/31 01:57:23;;;;;;;;;;;23.70;30.80;;;;;;672810;29;1175;-86
2022/03/31 01:57:45;;;;;;;;;;;23.70;31.10;;;;;;670179;29;829;-86
2022/03/31 01:58:06;;;;;;;;;;;23.70;30.80;;;;;;670300;29;875;-89
2022/03/31 01:58:27;;;;;;;;;;;23.70;30.90;;;;;;670404;29;1267;-83
2022/03/31 01:58:47;;;;;;;;;;;23.70;31.40;;;;;;670144;29;1268;-83
2022/03/31 01:59:08;;;;;;;;;;;23.70;31.40;;;;;;667555;29;1280;-87
2022/03/31 01:59:36;;;;;;;;;;;23.60;31.30;;;;;;668397;29;1248;-84
2022/03/31 01:59:56;;;;;;;;;;;23.70;31.20;;;;;;667590;29;1250;-87
2022/03/31 02:00:17;;;;;;;;;;;23.70;31.20;;;;;;667679;29;813;-84
2022/03/31 02:00:38;;;;;;;;;;;23.60;31.20;;;;;;668835;29;800;-83
2022/03/31 02:00:59;;;;;;;;;;;23.60;32.60;;;;;;668884;29;1114;-83
2022/03/31 02:01:20;;;;;;;;;;;23.70;32.10;;;;;;670326;29;1259;-85
2022/03/31 02:01:40;;;;;;;;;;;23.60;31.40;;;;;;670669;29;840;-83
2022/03/31 02:02:01;;;;;;;;;;;23.70;31.40;;;;;;670047;29;1961;-83
2022/03/31 02:02:22;;;;;;;;;;;23.70;31.60;;;;;;667760;29;1355;-83
2022/03/31 02:02:43;;;;;;;;;;;23.70;31.50;;;;;;665638;29;876;-82
2022/03/31 02:03:03;;;;;;;;;;;23.70;31.70;;;;;;667694;29;801;-84
2022/03/31 02:03:24;;;;;;;;;;;23.70;31.40;;;;;;667858;29;828;-83
2022/03/31 02:03:45;;;;;;;;;;;23.70;31.30;;;;;;668067;29;884;-83
2022/03/31 02:04:05;;;;;;;;;;;23.70;31.60;;;;;;670520;29;1179;-86
2022/03/31 02:04:26;;;;;;;;;;;23.70;31.50;;;;;;673013;29;892;-83
2022/03/31 02:04:47;;;;;;;;;;;23.70;31.60;;;;;;672741;29;995;-83
2022/03/31 02:05:08;;;;;;;;;;;23.70;31.30;;;;;;670111;29;1347;-83
2022/03/31 02:05:29;;;;;;;;;;;23.70;32.10;;;;;;670376;29;1386;-84
2022/03/31 02:05:50;;;;;;;;;;;23.70;31.50;;;;;;670414;29;836;-83
2022/03/31 02:06:11;;;;;;;;;;;23.70;31.50;;;;;;670171;29;1216;-83
2022/03/31 02:06:38;;;;;;;;;;;23.70;32.30;;;;;;670166;29;1425;-83
2022/03/31 02:06:59;;;;;;;;;;;23.70;31.10;;;;;;671477;29;1111;-83
2022/03/31 02:07:20;;;;;;;;;;;23.70;31.40;;;;;;672826;29;817;-84
2022/03/31 02:07:40;;;;;;;;;;;23.70;31.30;;;;;;672814;29;865;-83
2022/03/31 02:08:02;;;;;;;;;;;23.70;31.50;;;;;;670139;29;1239;-83
2022/03/31 02:08:22;;;;;;;;;;;23.70;32.00;;;;;;670330;29;1058;-84
2022/03/31 02:08:43;;;;;;;;;;;23.70;31.40;;;;;;670137;29;1015;-83
2022/03/31 02:09:04;;;;;;;;;;;23.70;31.40;;;;;;667967;29;1316;-84